createdAt,value
2019-01-05T00:01:48.513Z,6.89
2019-01-05T00:04:35.634Z,6.93
2019-01-05T00:07:22.957Z,6.93
2019-01-05T00:10:10.380Z,6.85
2019-01-05T00:13:01.594Z,7.08
2019-01-05T00:15:50.045Z,7.37
2019-01-05T00:18:38.697Z,7.72
2019-01-05T00:21:26.226Z,7.64
2019-01-05T00:24:23.789Z,7.64
2019-01-05T00:27:30.781Z,7.81
2019-01-05T00:30:19.222Z,7.74
2019-01-05T00:33:07.267Z,7.74
2019-01-05T00:36:08.220Z,7.92
2019-01-05T00:39:03.310Z,7.61
2019-01-05T00:42:00.975Z,7.43
2019-01-05T00:44:48.514Z,7.20
2019-01-05T00:47:35.726Z,7.20
2019-01-05T00:50:24.284Z,7.32
2019-01-05T00:53:16.208Z,7.32
2019-01-05T00:56:04.768Z,7.57
2019-01-05T00:58:52.086Z,7.57
2019-01-05T01:01:39.302Z,7.66
2019-01-05T01:04:26.421Z,7.79
2019-01-05T01:07:17.856Z,7.81
2019-01-05T01:10:04.966Z,7.81
2019-01-05T01:12:52.078Z,7.79
2019-01-05T01:15:40.629Z,7.64
2019-01-05T01:18:28.262Z,7.37
2019-01-05T01:21:19.987Z,7.18
2019-01-05T01:24:20.934Z,7.14
2019-01-05T01:27:03.130Z,7.01
2019-01-05T01:30:04.184Z,7.01
2019-01-05T01:33:01.640Z,7.06
2019-01-05T01:35:56.026Z,7.11
2019-01-05T01:38:49.597Z,7.19
2019-01-05T01:42:03.234Z,7.26
2019-01-05T01:45:03.578Z,7.33
2019-01-05T01:47:57.236Z,7.32
2019-01-05T01:50:57.767Z,7.48
2019-01-05T01:53:52.373Z,7.35
2019-01-05T01:56:59.203Z,7.21
2019-01-05T02:00:08.684Z,7.11
2019-01-05T02:02:57.547Z,7.17
2019-01-05T02:05:46.094Z,7.13
2019-01-05T02:08:44.477Z,7.13
2019-01-05T02:11:40.613Z,7.60
2019-01-05T02:14:23.426Z,7.60
2019-01-05T02:17:21.808Z,7.89
2019-01-05T02:20:36.370Z,7.74
2019-01-05T02:24:21.650Z,7.74
2019-01-05T02:27:38.056Z,7.69
2019-01-05T02:31:19.045Z,7.77
2019-01-05T02:35:05.245Z,7.86
2019-01-05T02:38:38.141Z,7.86
2019-01-05T02:42:15.324Z,7.99
2019-01-05T02:45:48.317Z,7.68
2019-01-05T02:49:28.484Z,7.46
2019-01-05T02:53:20.117Z,7.37
2019-01-05T02:56:30.679Z,7.44
2019-01-05T02:59:59.376Z,7.01
2019-01-05T03:04:01.780Z,7.01
2019-01-05T03:07:54.106Z,7.00
2019-01-05T03:11:15.838Z,7.08
2019-01-05T03:14:30.603Z,6.94
2019-01-05T03:17:51.714Z,6.97
2019-01-05T03:21:16.524Z,7.03
2019-01-05T03:24:56.684Z,7.02
2019-01-05T03:28:20.458Z,6.77
2019-01-05T03:31:46.593Z,6.54
2019-01-05T03:35:09.340Z,6.72
2019-01-05T03:38:52.168Z,6.72
2019-01-05T03:42:26.094Z,6.92
2019-01-05T03:45:44.844Z,6.75
2019-01-05T03:49:16.607Z,6.89
2019-01-05T03:52:37.517Z,6.79
2019-01-05T03:55:53.921Z,6.98
2019-01-05T04:00:02.559Z,7.06
2019-01-05T04:03:27.456Z,7.00
2019-01-05T04:07:13.764Z,6.85
2019-01-05T04:10:40.515Z,6.90
2019-01-05T04:14:14.630Z,6.93
2019-01-05T04:17:56.027Z,7.02
2019-01-05T04:21:18.576Z,6.93
2019-01-05T04:24:41.123Z,6.64
2019-01-05T04:28:10.327Z,6.77
2019-01-05T04:31:47.430Z,6.71
2019-01-05T04:35:14.571Z,6.81
2019-01-05T04:39:00.877Z,7.10
2019-01-05T04:42:47.330Z,7.11
2019-01-05T04:46:00.823Z,7.37
2019-01-05T04:49:51.430Z,7.19
2019-01-05T04:53:37.947Z,6.89
2019-01-05T04:57:17.437Z,6.89
2019-01-05T05:00:40.701Z,7.05
2019-01-05T05:04:18.772Z,7.01
2019-01-05T05:07:54.624Z,6.92
2019-01-05T05:11:41.749Z,7.00
2019-01-05T05:15:12.040Z,6.96
2019-01-05T05:18:21.526Z,7.03
2019-01-05T05:22:00.871Z,7.03
2019-01-05T05:25:25.097Z,6.79
2019-01-05T05:29:06.284Z,6.92
2019-01-05T05:32:59.502Z,6.92
2019-01-05T05:36:38.487Z,7.05
2019-01-05T05:40:13.484Z,6.96
2019-01-05T05:43:54.504Z,6.89
2019-01-05T05:47:12.918Z,6.93
2019-01-05T05:50:39.768Z,7.10
2019-01-05T05:54:03.141Z,7.00
2019-01-05T05:57:34.179Z,6.87
2019-01-05T06:01:08.410Z,6.68
2019-01-05T06:04:43.392Z,6.56
2019-01-05T06:08:20.496Z,6.67
2019-01-05T06:11:57.888Z,6.57
2019-01-05T06:15:45.369Z,6.54
2019-01-05T06:19:19.001Z,6.66
2019-01-05T06:22:42.441Z,6.65
2019-01-05T06:25:58.651Z,6.90
2019-01-05T06:29:30.010Z,6.68
2019-01-05T06:33:03.305Z,6.79
2019-01-05T06:36:24.937Z,6.69
2019-01-05T06:40:04.786Z,6.46
2019-01-05T06:43:32.558Z,6.55
2019-01-05T06:47:03.207Z,6.40
2019-01-05T06:50:31.486Z,6.44
2019-01-05T06:54:21.785Z,6.36
2019-01-05T06:58:04.317Z,6.47
2019-01-05T07:01:36.677Z,6.75
2019-01-05T07:04:38.040Z,6.95
2019-01-05T07:08:20.506Z,6.85
2019-01-05T07:11:51.198Z,7.14
2019-01-05T07:15:29.198Z,6.94
2019-01-05T07:18:51.912Z,7.07
2019-01-05T07:22:09.891Z,7.28
2019-01-05T07:25:40.023Z,7.27
2019-01-05T07:29:02.936Z,7.32
2019-01-05T07:32:36.027Z,7.12
2019-01-05T07:36:20.573Z,7.09
2019-01-05T07:40:00.600Z,7.06
2019-01-05T07:43:42.396Z,7.05
2019-01-05T07:47:12.337Z,7.01
2019-01-05T07:50:23.714Z,7.11
2019-01-05T07:54:11.559Z,7.11
2019-01-05T07:57:35.329Z,7.10
2019-01-05T08:01:01.052Z,7.15
2019-01-05T08:04:44.484Z,7.19
2019-01-05T08:08:40.158Z,7.20
2019-01-05T08:11:51.396Z,7.34
2019-01-05T08:15:32.175Z,7.54
2019-01-05T08:19:13.677Z,7.54
2019-01-05T08:23:00.901Z,7.39
2019-01-05T08:26:44.222Z,7.46
2019-01-05T08:30:19.480Z,7.55
2019-01-05T08:33:43.869Z,7.55
2019-01-05T08:37:30.379Z,7.60
2019-01-05T08:41:23.240Z,7.60
2019-01-05T08:45:02.278Z,7.63
2019-01-05T08:48:33.433Z,7.78
2019-01-05T08:51:53.423Z,7.82
2019-01-05T08:55:37.262Z,7.88
2019-01-05T08:59:16.110Z,7.88
2019-01-05T09:03:18.689Z,8.10
2019-01-05T09:06:55.975Z,8.33
2019-01-05T09:10:40.030Z,8.33
2019-01-05T09:13:54.707Z,8.43
2019-01-05T09:17:22.779Z,8.58
2019-01-05T09:20:50.754Z,8.44
2019-01-05T09:24:15.755Z,8.49
2019-01-05T09:27:39.841Z,8.45
2019-01-05T09:31:19.909Z,8.60
2019-01-05T09:34:38.677Z,8.60
2019-01-05T09:38:15.242Z,8.69
2019-01-05T09:41:58.476Z,8.61
2019-01-05T09:45:29.829Z,8.61
2019-01-05T09:49:09.929Z,8.67
2019-01-05T09:52:43.396Z,8.72
2019-01-05T09:56:08.912Z,8.72
2019-01-05T09:59:18.252Z,9.09
2019-01-05T10:03:11.328Z,9.09
2019-01-05T10:06:34.530Z,8.82
2019-01-05T10:09:59.319Z,8.88
2019-01-05T10:13:26.307Z,8.71
2019-01-05T10:16:53.953Z,8.88
2019-01-05T10:20:17.920Z,9.02
2019-01-05T10:23:54.997Z,9.02
2019-01-05T10:27:07.694Z,9.05
2019-01-05T10:30:32.820Z,9.22
2019-01-05T10:34:06.960Z,9.22
2019-01-05T10:38:05.933Z,8.92
2019-01-05T10:41:26.426Z,9.18
2019-01-05T10:45:25.332Z,9.18
2019-01-05T10:48:49.119Z,9.30
2019-01-05T10:52:13.010Z,9.64
2019-01-05T10:55:43.830Z,9.23
2019-01-05T10:59:02.186Z,9.23
2019-01-05T11:03:05.179Z,9.27
2019-01-05T11:06:19.557Z,9.50
2019-01-05T11:09:57.047Z,9.12
2019-01-05T11:13:16.306Z,9.12
2019-01-05T11:16:59.644Z,9.43
2019-01-05T11:20:36.942Z,9.48
2019-01-05T11:23:48.445Z,9.34
2019-01-05T11:27:45.285Z,9.34
2019-01-05T11:31:31.389Z,9.53
2019-01-05T11:35:05.710Z,9.29
2019-01-05T11:38:41.197Z,9.40
2019-01-05T11:41:53.789Z,9.43
2019-01-05T11:45:42.684Z,9.32
2019-01-05T11:49:14.415Z,9.47
2019-01-05T11:52:47.925Z,9.51
2019-01-05T11:56:15.377Z,9.29
2019-01-05T11:59:45.417Z,9.44
2019-01-05T12:03:01.526Z,9.44
2019-01-05T12:06:32.141Z,9.60
2019-01-05T12:10:12.004Z,9.58
2019-01-05T12:13:39.530Z,9.28
2019-01-05T12:17:03.644Z,9.20
2019-01-05T12:20:40.634Z,9.24
2019-01-05T12:24:28.387Z,9.24
2019-01-05T12:28:06.384Z,9.33
2019-01-05T12:31:48.599Z,9.53
2019-01-05T12:35:40.430Z,9.53
2019-01-05T12:39:31.036Z,9.24
2019-01-05T12:42:58.195Z,9.48
2019-01-05T12:46:26.899Z,9.48
2019-01-05T12:49:52.410Z,9.45
2019-01-05T12:53:28.891Z,9.38
2019-01-05T12:57:06.999Z,9.29
2019-01-05T13:00:39.372Z,9.29
2019-01-05T13:03:52.503Z,9.44
2019-01-05T13:07:08.410Z,9.41
2019-01-05T13:10:39.759Z,9.41
2019-01-05T13:14:11.220Z,9.65
2019-01-05T13:18:03.809Z,9.52
2019-01-05T13:21:44.305Z,9.47
2019-01-05T13:25:12.932Z,9.58
2019-01-05T13:28:47.362Z,9.51
2019-01-05T13:32:33.552Z,9.57
2019-01-05T13:35:53.659Z,9.57
2019-01-05T13:39:24.695Z,9.53
2019-01-05T13:42:57.177Z,9.52
2019-01-05T13:46:31.707Z,9.67
2019-01-05T13:49:50.134Z,9.66
2019-01-05T13:53:18.546Z,9.59
2019-01-05T13:56:26.350Z,9.80
2019-01-05T13:59:07.228Z,9.66
2019-01-05T14:01:56.499Z,9.41
2019-01-05T14:04:48.323Z,9.69
2019-01-05T14:07:36.254Z,9.92
2019-01-05T14:10:24.412Z,10.03
2019-01-05T14:13:10.502Z,9.74
2019-01-05T14:15:57.632Z,9.73
2019-01-05T14:18:44.732Z,9.77
2019-01-05T14:21:33.382Z,9.83
2019-01-05T14:24:20.910Z,9.61
2019-01-05T14:27:15.305Z,9.64
2019-01-05T14:30:03.864Z,9.67
2019-01-05T14:32:58.453Z,9.90
2019-01-05T14:35:49.965Z,9.84
2019-01-05T14:38:44.867Z,9.95
2019-01-05T14:41:39.469Z,9.84
2019-01-05T14:44:28.011Z,9.67
2019-01-05T14:47:16.681Z,9.81
2019-01-05T14:50:05.219Z,9.68
2019-01-05T14:52:53.778Z,9.89
2019-01-05T14:55:54.118Z,9.59
2019-01-05T14:58:41.426Z,9.51
2019-01-05T15:01:38.887Z,9.44
2019-01-05T15:04:26.409Z,9.51
2019-01-05T15:07:24.112Z,9.58
2019-01-05T15:10:28.196Z,9.59
2019-01-05T15:13:22.993Z,9.41
2019-01-05T15:16:11.557Z,9.41
2019-01-05T15:19:12.283Z,9.53
2019-01-05T15:22:03.717Z,9.52
2019-01-05T15:25:04.166Z,9.46
2019-01-05T15:27:47.568Z,9.54
2019-01-05T15:30:35.162Z,9.66
2019-01-05T15:33:22.435Z,9.64
2019-01-05T15:36:10.967Z,9.84
2019-01-05T15:38:58.396Z,9.94
2019-01-05T15:42:02.100Z,9.53
2019-01-05T15:45:02.843Z,9.62
2019-01-05T15:48:00.194Z,9.76
2019-01-05T15:50:57.868Z,9.53
2019-01-05T15:53:46.528Z,9.36
2019-01-05T15:56:33.781Z,9.61
2019-01-05T15:59:40.840Z,9.61
2019-01-05T16:02:45.968Z,9.58
2019-01-05T16:05:44.059Z,9.45
2019-01-05T16:08:31.698Z,9.48
2019-01-05T16:11:26.078Z,9.48
2019-01-05T16:14:32.882Z,9.56
2019-01-05T16:17:24.171Z,9.53
2019-01-05T16:20:28.087Z,9.32
2019-01-05T16:23:26.149Z,9.42
2019-01-05T16:26:13.873Z,9.45
2019-01-05T16:29:02.525Z,9.51
2019-01-05T16:32:00.302Z,9.60
2019-01-05T16:34:58.077Z,9.60
2019-01-05T16:37:45.368Z,9.53
2019-01-05T16:40:32.709Z,9.54
2019-01-05T16:43:21.287Z,9.20
2019-01-05T16:46:13.725Z,9.26
2019-01-05T16:49:00.217Z,9.52
2019-01-05T16:51:51.537Z,9.53
2019-01-05T16:54:33.217Z,9.46
2019-01-05T16:57:20.685Z,9.37
2019-01-05T17:00:07.761Z,9.28
2019-01-05T17:02:54.178Z,9.21
2019-01-05T17:05:55.014Z,9.29
2019-01-05T17:08:43.465Z,9.32
2019-01-05T17:11:37.840Z,9.38
2019-01-05T17:14:25.090Z,9.41
2019-01-05T17:17:19.554Z,9.50
2019-01-05T17:20:06.910Z,9.39
2019-01-05T17:23:10.481Z,9.14
2019-01-05T17:26:01.900Z,9.22
2019-01-05T17:28:53.236Z,9.33
2019-01-05T17:31:44.636Z,9.22
2019-01-05T17:34:35.854Z,9.49
2019-01-05T17:37:39.865Z,9.45
2019-01-05T17:40:28.620Z,9.28
2019-01-05T17:43:21.790Z,9.53
2019-01-05T17:46:13.920Z,9.39
2019-01-05T17:49:07.814Z,9.61
2019-01-05T17:51:51.440Z,9.36
2019-01-05T17:54:45.830Z,9.52
2019-01-05T17:57:33.361Z,9.40
2019-01-05T18:00:20.466Z,9.42
2019-01-05T18:03:20.929Z,9.49
2019-01-05T18:06:15.713Z,9.44
2019-01-05T18:09:03.043Z,9.47
2019-01-05T18:11:50.138Z,9.52
2019-01-05T18:14:50.595Z,9.59
2019-01-05T18:17:38.124Z,9.80
2019-01-05T18:20:34.057Z,9.70
2019-01-05T18:23:30.413Z,9.56
2019-01-05T18:26:31.130Z,9.56
2019-01-05T18:29:22.519Z,9.60
2019-01-05T18:32:20.281Z,9.55
2019-01-05T18:35:11.923Z,9.74
2019-01-05T18:38:12.755Z,9.80
2019-01-05T18:41:01.404Z,9.86
2019-01-05T18:43:49.978Z,9.59
2019-01-05T18:46:36.043Z,9.70
2019-01-05T18:49:18.784Z,9.56
2019-01-05T18:52:25.147Z,9.52
2019-01-05T18:55:22.095Z,9.49
2019-01-05T18:58:13.495Z,9.60
2019-01-05T19:01:00.632Z,9.50
2019-01-05T19:04:01.184Z,9.40
2019-01-05T19:06:48.472Z,9.39
2019-01-05T19:09:36.264Z,9.55
2019-01-05T19:12:30.805Z,9.45
2019-01-05T19:15:19.359Z,9.28
2019-01-05T19:18:06.675Z,9.38
2019-01-05T19:24:07.333Z,9.70
2019-01-05T19:26:48.034Z,9.51
2019-01-05T19:29:39.519Z,9.49
2019-01-05T19:32:27.379Z,9.53
2019-01-05T19:35:15.001Z,9.55
2019-01-05T19:38:02.363Z,9.28
2019-01-05T19:40:50.858Z,9.49
2019-01-05T19:43:45.353Z,9.19
2019-01-05T19:46:33.905Z,9.28
2019-01-05T19:49:22.556Z,9.43
2019-01-05T19:52:29.346Z,9.22
2019-01-05T19:55:26.823Z,9.15
2019-01-05T19:58:33.490Z,9.33
2019-01-05T20:01:21.789Z,9.21
2019-01-05T20:04:24.009Z,9.19
2019-01-05T20:07:24.456Z,9.19
2019-01-05T20:10:18.680Z,9.19
2019-01-05T20:13:07.463Z,9.34
2019-01-05T20:16:14.653Z,9.38
2019-01-05T20:19:21.849Z,9.38
2019-01-05T20:22:09.486Z,9.35
2019-01-05T20:25:03.922Z,9.26
2019-01-05T20:28:04.508Z,9.36
2019-01-05T20:30:47.620Z,9.20
2019-01-05T20:33:34.539Z,9.10
2019-01-05T20:36:22.917Z,9.25
2019-01-05T20:39:07.020Z,9.25
2019-01-05T20:41:54.344Z,9.16
2019-01-05T20:44:41.443Z,9.07
2019-01-05T20:47:33.696Z,9.02
2019-01-05T20:50:20.787Z,8.92
2019-01-05T20:53:15.069Z,9.03
2019-01-05T20:56:02.196Z,9.34
2019-01-05T20:59:05.884Z,9.21
2019-01-05T21:02:00.221Z,9.36
2019-01-05T21:04:48.460Z,9.12
2019-01-05T21:07:53.099Z,9.16
2019-01-05T21:10:40.328Z,9.08
2019-01-05T21:13:40.961Z,8.89
2019-01-05T21:16:28.110Z,8.87
2019-01-05T21:19:18.011Z,8.91
2019-01-05T21:22:05.337Z,8.92
2019-01-05T21:24:52.513Z,8.92
2019-01-05T21:27:43.817Z,8.90
2019-01-05T21:30:38.735Z,8.85
2019-01-05T21:33:38.437Z,8.89
2019-01-05T21:36:30.058Z,8.99
2019-01-05T21:39:18.618Z,8.92
2019-01-05T21:42:16.583Z,8.95
2019-01-05T21:45:16.157Z,9.04
2019-01-05T21:48:03.616Z,8.98
2019-01-05T21:51:07.316Z,8.69
2019-01-05T21:54:11.552Z,8.70
2019-01-05T21:57:06.896Z,8.79
2019-01-05T22:00:18.878Z,8.94
2019-01-05T22:03:14.294Z,8.81
2019-01-05T22:06:10.533Z,8.74
2019-01-05T22:09:04.221Z,8.74
2019-01-05T22:11:53.447Z,8.87
2019-01-05T22:14:53.885Z,8.86
2019-01-05T22:17:46.566Z,8.96
2019-01-05T22:20:56.835Z,8.96
2019-01-05T22:24:00.179Z,8.72
2019-01-05T22:27:01.401Z,8.78
2019-01-05T22:29:51.903Z,8.78
2019-01-05T22:33:00.256Z,8.82
2019-01-05T22:36:02.269Z,8.86
2019-01-05T22:38:51.276Z,9.03
2019-01-05T22:41:55.186Z,9.03
2019-01-05T22:44:46.607Z,9.05
2019-01-05T22:47:37.820Z,9.05
2019-01-05T22:50:25.857Z,8.87
2019-01-05T22:53:29.668Z,9.03
2019-01-05T22:56:30.406Z,9.05
2019-01-05T22:59:17.627Z,9.05
2019-01-05T23:02:01.376Z,9.05
2019-01-05T23:05:04.880Z,9.36
2019-01-05T23:07:51.976Z,9.27
2019-01-05T23:10:49.664Z,9.53
2019-01-05T23:13:43.021Z,9.32
2019-01-05T23:16:41.711Z,9.42
2019-01-05T23:19:29.036Z,9.42
2019-01-05T23:22:20.346Z,9.62
2019-01-05T23:25:12.090Z,9.62
2019-01-05T23:27:59.500Z,9.90
2019-01-05T23:30:53.991Z,9.90
2019-01-05T23:33:48.385Z,9.62
2019-01-05T23:36:39.943Z,9.19
2019-01-05T23:39:37.770Z,9.34
2019-01-05T23:42:26.337Z,9.05
2019-01-05T23:45:26.957Z,9.05
2019-01-05T23:48:27.797Z,8.62
2019-01-05T23:51:16.574Z,8.62
2019-01-05T23:54:03.779Z,8.81
2019-01-05T23:56:52.364Z,8.81
2019-01-05T23:59:40.885Z,8.76
